createdAt,value
2022-12-18T00:00:59.741Z,103101.09
2022-12-18T00:04:24.648Z,103115.84
2022-12-18T00:07:47.656Z,103110.59
2022-12-18T00:11:11.036Z,103122.75
2022-12-18T00:14:32.801Z,103117.53
2022-12-18T00:17:54.498Z,103129.66
2022-12-18T00:21:16.490Z,103133.16
2022-12-18T00:24:39.580Z,103133.94
2022-12-18T00:28:01.111Z,103130.44
2022-12-18T00:31:24.740Z,103140.00
2022-12-18T00:34:48.526Z,103134.81
2022-12-18T00:38:10.708Z,103129.56
2022-12-18T00:41:51.906Z,103127.81
2022-12-18T00:45:13.491Z,103132.16
2022-12-18T00:48:35.126Z,103142.59
2022-12-18T00:51:59.778Z,103132.94
2022-12-18T00:55:21.528Z,103143.34
2022-12-18T00:58:44.735Z,103149.41
2022-12-18T01:02:06.548Z,103139.78
2022-12-18T01:05:28.312Z,103153.63
2022-12-18T01:08:50.079Z,103150.13
2022-12-18T01:12:11.449Z,103153.56
2022-12-18T01:15:34.727Z,103150.06
2022-12-18T01:18:57.212Z,103162.13
2022-12-18T01:22:18.824Z,103151.72
2022-12-18T01:25:40.869Z,103149.13
2022-12-18T01:29:04.979Z,103155.22
2022-12-18T01:32:27.588Z,103165.59
2022-12-18T01:35:49.267Z,103163.00
2022-12-18T01:39:14.167Z,103169.91
2022-12-18T01:42:37.453Z,103168.16
2022-12-18T01:46:01.526Z,103162.00
2022-12-18T01:49:24.816Z,103161.13
2022-12-18T01:52:49.651Z,103170.63
2022-12-18T01:56:15.631Z,103177.50
2022-12-18T01:59:38.928Z,103175.75
2022-12-18T02:03:01.878Z,103171.44
2022-12-18T02:06:34.636Z,103171.41
2022-12-18T02:10:03.335Z,103171.41
2022-12-18T02:13:32.257Z,103182.72
2022-12-18T02:17:00.349Z,103178.34
2022-12-18T02:20:26.826Z,103171.38
2022-12-18T02:23:58.612Z,103189.56
2022-12-18T02:27:22.713Z,103181.78
2022-12-18T02:30:47.550Z,103180.06
2022-12-18T02:34:11.371Z,103187.03
2022-12-18T02:37:36.377Z,103186.13
2022-12-18T02:41:02.377Z,103182.63
2022-12-18T02:44:25.624Z,103191.28
2022-12-18T02:47:51.682Z,103188.59
2022-12-18T02:51:19.585Z,103196.34
2022-12-18T02:54:58.201Z,103201.56
2022-12-18T02:58:22.993Z,103197.19
2022-12-18T03:01:57.226Z,103202.41
2022-12-18T03:05:23.009Z,103195.41
2022-12-18T03:08:48.756Z,103194.56
2022-12-18T03:12:26.568Z,103204.06
2022-12-18T03:15:55.034Z,103205.81
2022-12-18T03:19:21.616Z,103211.94
2022-12-18T03:22:50.148Z,103210.97
2022-12-18T03:26:17.445Z,103208.38
2022-12-18T03:29:44.756Z,103209.28
2022-12-18T03:33:12.973Z,103213.56
2022-12-18T03:36:40.706Z,103213.53
2022-12-18T03:40:02.612Z,103219.63
2022-12-18T03:43:38.324Z,103218.78
2022-12-18T03:47:07.568Z,103219.69
2022-12-18T03:50:39.812Z,103216.13
2022-12-18T03:54:05.959Z,103212.69
2022-12-18T03:57:35.076Z,103215.22
2022-12-18T04:01:03.368Z,103214.31
2022-12-18T04:04:27.094Z,103222.09
2022-12-18T04:07:51.768Z,103215.13
2022-12-18T04:11:14.464Z,103222.00
2022-12-18T04:14:36.680Z,103208.97
2022-12-18T04:17:59.720Z,103208.88
2022-12-18T04:21:27.595Z,103214.97
2022-12-18T04:24:49.410Z,103229.72
2022-12-18T04:28:21.611Z,103225.38
2022-12-18T04:31:43.762Z,103230.59
2022-12-18T04:35:11.420Z,103222.78
2022-12-18T04:38:34.512Z,103226.22
2022-12-18T04:42:02.693Z,103232.28
2022-12-18T04:45:25.523Z,103225.34
2022-12-18T04:48:48.951Z,103221.88
2022-12-18T04:52:10.491Z,103222.75
2022-12-18T04:55:32.305Z,103230.53
2022-12-18T04:58:54.133Z,103233.13
2022-12-18T05:02:16.869Z,103243.53
2022-12-18T05:05:38.512Z,103248.78
2022-12-18T05:09:00.779Z,103249.69
2022-12-18T05:12:22.305Z,103251.34
2022-12-18T05:15:44.059Z,103255.66
2022-12-18T05:19:07.147Z,103263.44
2022-12-18T05:22:28.964Z,103262.50
2022-12-18T05:25:53.418Z,103273.75
2022-12-18T05:29:15.332Z,103278.97
2022-12-18T05:32:36.629Z,103280.66
2022-12-18T05:36:05.299Z,103271.94
2022-12-18T05:39:26.686Z,103272.78
2022-12-18T05:42:48.564Z,103288.34
2022-12-18T05:46:13.976Z,103287.50
2022-12-18T05:49:35.799Z,103290.09
2022-12-18T05:52:58.964Z,103297.91
2022-12-18T05:56:22.170Z,103292.63
2022-12-18T05:59:43.793Z,103289.13
2022-12-18T06:03:06.060Z,103299.47
2022-12-18T06:06:29.526Z,103303.78
2022-12-18T06:09:52.474Z,103299.47
2022-12-18T06:13:13.765Z,103305.47
2022-12-18T06:16:35.681Z,103304.63
2022-12-18T06:19:57.573Z,103308.03
2022-12-18T06:23:19.635Z,103319.22
2022-12-18T06:26:42.600Z,103307.00
2022-12-18T06:30:04.589Z,103321.66
2022-12-18T06:33:28.973Z,103332.84
2022-12-18T06:36:50.357Z,103330.22
2022-12-18T06:40:12.101Z,103337.09
2022-12-18T06:43:35.366Z,103365.75
2022-12-18T06:46:57.257Z,103375.34
2022-12-18T06:50:18.880Z,103371.91
2022-12-18T06:53:40.820Z,103374.44
2022-12-18T06:57:02.765Z,103369.25
2022-12-18T07:00:25.952Z,103357.06
2022-12-18T07:03:47.914Z,103367.44
2022-12-18T07:07:09.703Z,103359.59
2022-12-18T07:10:31.565Z,103365.63
2022-12-18T07:13:55.404Z,103359.53
2022-12-18T07:17:18.643Z,103361.28
2022-12-18T07:20:40.621Z,103375.19
2022-12-18T07:24:02.279Z,103367.38
2022-12-18T07:27:23.765Z,103377.75
2022-12-18T07:30:45.568Z,103378.63
2022-12-18T07:34:12.334Z,103382.97
2022-12-18T07:37:33.977Z,103385.56
2022-12-18T07:40:55.877Z,103383.81
2022-12-18T07:44:17.040Z,103391.66
2022-12-18T07:47:39.031Z,103394.22
2022-12-18T07:51:01.854Z,103400.34
2022-12-18T07:54:23.374Z,103393.44
2022-12-18T07:57:55.376Z,103394.28
2022-12-18T08:01:21.350Z,103396.03
2022-12-18T08:04:43.388Z,103396.94
2022-12-18T08:08:07.200Z,103385.69
2022-12-18T08:11:30.646Z,103389.19
2022-12-18T08:14:52.240Z,103392.69
2022-12-18T08:18:14.641Z,103387.56
2022-12-18T08:21:36.318Z,103387.56
2022-12-18T08:24:59.531Z,103384.19
2022-12-18T08:28:21.484Z,103388.50
2022-12-18T08:31:43.334Z,103386.78
2022-12-18T08:35:05.523Z,103400.72
2022-12-18T08:38:27.413Z,103405.13
2022-12-18T08:42:09.737Z,103406.81
2022-12-18T08:45:31.654Z,103405.13
2022-12-18T08:48:54.439Z,103403.34
2022-12-18T08:52:16.220Z,103412.06
2022-12-18T08:55:37.975Z,103419.09
2022-12-18T08:59:01.393Z,103413.88
2022-12-18T09:02:23.000Z,103427.81
2022-12-18T09:05:45.242Z,103436.50
2022-12-18T09:09:07.077Z,103426.13
2022-12-18T09:12:28.812Z,103427.03
2022-12-18T09:15:53.385Z,103420.13
2022-12-18T09:19:15.356Z,103424.47
2022-12-18T09:22:37.058Z,103428.00
2022-12-18T09:26:01.243Z,103441.84
2022-12-18T09:29:22.988Z,103454.06
2022-12-18T09:32:45.814Z,103447.19
2022-12-18T09:36:09.693Z,103441.16
2022-12-18T09:39:31.468Z,103437.78
2022-12-18T09:42:57.673Z,103433.59
2022-12-18T09:46:26.380Z,103448.38
2022-12-18T09:49:53.399Z,103435.47
2022-12-18T09:53:19.559Z,103424.28
2022-12-18T09:56:43.503Z,103414.84
2022-12-18T10:00:13.688Z,103413.16
2022-12-18T10:03:36.366Z,103416.72
2022-12-18T10:07:09.074Z,103408.22
2022-12-18T10:10:40.749Z,103394.34
2022-12-18T10:14:11.910Z,103397.91
2022-12-18T10:17:42.128Z,103407.53
2022-12-18T10:21:10.434Z,103398.13
2022-12-18T10:24:40.211Z,103396.47
2022-12-18T10:28:12.292Z,103382.63
2022-12-18T10:31:33.946Z,103375.69
2022-12-18T10:35:00.729Z,103361.06
2022-12-18T10:38:24.926Z,103361.13
2022-12-18T10:41:48.175Z,103357.72
2022-12-18T10:45:12.740Z,103349.13
2022-12-18T10:48:38.076Z,103353.59
2022-12-18T10:52:16.999Z,103346.69
2022-12-18T10:55:41.445Z,103346.75
2022-12-18T10:59:06.417Z,103352.03
2022-12-18T11:02:30.863Z,103349.47
2022-12-18T11:06:05.260Z,103338.25
2022-12-18T11:09:28.464Z,103347.00
2022-12-18T11:12:50.623Z,103330.53
2022-12-18T11:16:21.760Z,103331.47
2022-12-18T11:19:43.675Z,103338.53
2022-12-18T11:23:08.313Z,103342.03
2022-12-18T11:26:36.891Z,103337.75
2022-12-18T11:30:11.153Z,103328.22
2022-12-18T11:33:34.794Z,103322.19
2022-12-18T11:36:56.847Z,103339.59
2022-12-18T11:40:22.114Z,103328.38
2022-12-18T11:43:50.400Z,103331.88
2022-12-18T11:47:20.825Z,103342.34
2022-12-18T11:50:51.129Z,103349.31
2022-12-18T11:54:15.400Z,103359.78
2022-12-18T11:57:44.349Z,103355.47
2022-12-18T12:01:16.048Z,103352.84
2022-12-18T12:05:03.299Z,103349.41
2022-12-18T12:08:38.643Z,103366.78
2022-12-18T12:12:18.789Z,103367.69
2022-12-18T12:15:48.664Z,103361.56
2022-12-18T12:19:26.191Z,103352.94
2022-12-18T12:22:56.216Z,103351.22
2022-12-18T12:26:28.338Z,103366.03
2022-12-18T12:30:03.302Z,103366.91
2022-12-18T12:33:36.948Z,103371.25
2022-12-18T12:41:03.146Z,103381.72
2022-12-18T12:44:32.502Z,103385.19
2022-12-18T12:47:55.467Z,103398.28
2022-12-18T12:51:21.641Z,103396.53
2022-12-18T12:54:43.894Z,103390.50
2022-12-18T12:58:13.826Z,103371.41
2022-12-18T13:01:44.486Z,103366.22
2022-12-18T13:05:17.550Z,103358.44
2022-12-18T13:08:55.741Z,103354.97
2022-12-18T13:12:35.866Z,103354.09
2022-12-18T13:16:08.357Z,103355.00
2022-12-18T13:19:31.621Z,103341.97
2022-12-18T13:22:53.129Z,103334.13
2022-12-18T13:26:32.976Z,103339.34
2022-12-18T13:29:54.625Z,103330.66
2022-12-18T13:37:54.400Z,103344.53
2022-12-18T13:41:29.010Z,103345.38
2022-12-18T13:44:51.161Z,103354.97
2022-12-18T13:48:22.972Z,103358.44
2022-12-18T13:51:47.374Z,103355.81
2022-12-18T13:55:20.600Z,103346.25
2022-12-18T13:58:43.506Z,103351.50
2022-12-18T14:02:15.767Z,103329.69
2022-12-18T14:05:40.259Z,103334.94
2022-12-18T14:09:05.334Z,103323.63
2022-12-18T14:12:51.599Z,103302.75
2022-12-18T14:16:17.457Z,103297.47
2022-12-18T14:19:42.953Z,103300.06
2022-12-18T14:23:04.841Z,103299.19
2022-12-18T14:26:30.251Z,103294.81
2022-12-18T14:29:54.017Z,103288.72
2022-12-18T14:33:17.065Z,103281.75
2022-12-18T14:36:40.896Z,103301.72
2022-12-18T14:40:10.947Z,103285.19
2022-12-18T14:43:35.442Z,103282.53
2022-12-18T14:46:58.786Z,103266.00
2022-12-18T14:50:20.480Z,103259.91
2022-12-18T14:53:49.131Z,103251.19
2022-12-18T14:57:23.748Z,103247.72
2022-12-18T15:00:45.678Z,103243.38
2022-12-18T15:04:28.409Z,103257.22
2022-12-18T15:07:51.552Z,103264.19
2022-12-18T15:11:45.516Z,103261.56
2022-12-18T15:15:28.159Z,103260.72
2022-12-18T15:18:49.933Z,103278.13
2022-12-18T15:22:28.325Z,103289.38
2022-12-18T15:25:56.351Z,103298.09
2022-12-18T15:29:21.428Z,103308.47
2022-12-18T15:32:46.960Z,103300.66
2022-12-18T15:36:12.621Z,103302.41
2022-12-18T15:39:36.778Z,103304.16
2022-12-18T15:43:15.786Z,103298.91
2022-12-18T15:46:37.243Z,103289.34
2022-12-18T15:49:59.067Z,103285.91
2022-12-18T15:53:21.305Z,103292.84
2022-12-18T15:57:01.898Z,103285.03
2022-12-18T16:00:23.450Z,103277.19
2022-12-18T16:03:45.102Z,103283.28
2022-12-18T16:07:16.167Z,103284.16
2022-12-18T16:10:43.268Z,103278.91
2022-12-18T16:14:06.677Z,103267.56
2022-12-18T16:17:29.910Z,103265.88
2022-12-18T16:20:51.797Z,103264.13
2022-12-18T16:24:17.620Z,103252.81
2022-12-18T16:27:39.253Z,103243.28
2022-12-18T16:31:02.226Z,103262.44
2022-12-18T16:34:28.847Z,103271.09
2022-12-18T16:37:50.690Z,103259.81
2022-12-18T16:41:36.296Z,103249.34
2022-12-18T16:44:58.210Z,103251.09
2022-12-18T16:48:20.829Z,103246.75
2022-12-18T16:51:42.341Z,103238.06
2022-12-18T16:55:04.631Z,103239.81
2022-12-18T16:58:26.228Z,103253.72
2022-12-18T17:01:48.277Z,103258.06
2022-12-18T17:05:11.707Z,103257.22
2022-12-18T17:08:33.648Z,103259.78
2022-12-18T17:11:55.372Z,103271.09
2022-12-18T17:15:16.829Z,103268.47
2022-12-18T17:18:40.029Z,103265.00
2022-12-18T17:22:02.738Z,103260.66
2022-12-18T17:25:24.083Z,103251.94
2022-12-18T17:28:47.167Z,103247.59
2022-12-18T17:32:08.837Z,103255.44
2022-12-18T17:35:31.526Z,103268.47
2022-12-18T17:38:55.455Z,103265.88
2022-12-18T17:42:17.032Z,103281.50
2022-12-18T17:45:39.635Z,103279.78
2022-12-18T17:49:02.980Z,103277.19
2022-12-18T17:52:24.588Z,103277.19
2022-12-18T17:55:56.546Z,103257.22
2022-12-18T17:59:17.993Z,103259.81
2022-12-18T18:02:40.631Z,103262.47
2022-12-18T18:06:03.747Z,103254.63
2022-12-18T18:09:25.131Z,103243.34
2022-12-18T18:13:14.127Z,103248.56
2022-12-18T18:16:39.181Z,103238.13
2022-12-18T18:20:00.699Z,103238.13
2022-12-18T18:23:22.573Z,103228.56
2022-12-18T18:26:46.372Z,103214.66
2022-12-18T18:30:11.474Z,103212.91
2022-12-18T18:33:32.904Z,103212.06
2022-12-18T18:36:54.480Z,103204.16
2022-12-18T18:40:16.448Z,103209.38
2022-12-18T18:43:38.269Z,103198.06
2022-12-18T18:47:02.265Z,103182.38
2022-12-18T18:50:27.138Z,103185.84
2022-12-18T18:53:50.200Z,103178.00
2022-12-18T18:57:20.477Z,103168.44
2022-12-18T19:00:42.447Z,103164.91
2022-12-18T19:04:06.638Z,103160.50
2022-12-18T19:07:30.420Z,103154.41
2022-12-18T19:10:57.671Z,103150.91
2022-12-18T19:14:20.302Z,103149.16
2022-12-18T19:17:41.878Z,103147.41
2022-12-18T19:21:07.802Z,103154.31
2022-12-18T19:24:29.786Z,103149.97
2022-12-18T19:27:51.050Z,103142.09
2022-12-18T19:31:14.774Z,103143.81
2022-12-18T19:34:37.800Z,103145.53
2022-12-18T19:38:00.852Z,103146.41
2022-12-18T19:41:23.161Z,103138.56
2022-12-18T19:44:46.573Z,103140.31
2022-12-18T19:48:09.418Z,103116.00
2022-12-18T19:51:32.625Z,103115.13
2022-12-18T19:54:55.665Z,103116.84
2022-12-18T19:58:17.451Z,103103.78
2022-12-18T20:01:41.021Z,103113.28
2022-12-18T20:05:03.555Z,103109.75
2022-12-18T20:08:25.144Z,103102.75
2022-12-18T20:11:48.041Z,103093.16
2022-12-18T20:15:11.255Z,103082.69
2022-12-18T20:18:33.065Z,103080.91
2022-12-18T20:21:55.666Z,103078.28
2022-12-18T20:25:20.291Z,103088.66
2022-12-18T20:28:43.432Z,103080.84
2022-12-18T20:32:05.404Z,103087.78
2022-12-18T20:35:28.229Z,103094.69
2022-12-18T20:38:50.892Z,103097.31
2022-12-18T20:42:12.620Z,103094.69
2022-12-18T20:45:35.499Z,103088.59
2022-12-18T20:48:57.996Z,103088.59
2022-12-18T20:52:19.637Z,103077.31
2022-12-18T20:55:44.714Z,103074.72
2022-12-18T20:59:07.279Z,103078.19
2022-12-18T21:02:30.441Z,103074.69
2022-12-18T21:05:52.452Z,103064.28
2022-12-18T21:09:13.815Z,103070.31
2022-12-18T21:12:48.244Z,103064.13
2022-12-18T21:16:18.943Z,103065.00
2022-12-18T21:19:42.553Z,103058.03
2022-12-18T21:23:16.524Z,103061.50
2022-12-18T21:26:45.458Z,103065.81
2022-12-18T21:30:08.913Z,103050.19
2022-12-18T21:33:30.610Z,103038.88
2022-12-18T21:36:54.365Z,103041.47
2022-12-18T21:40:16.066Z,103034.53
2022-12-18T21:43:56.146Z,103037.09
2022-12-18T21:47:23.013Z,103043.16
2022-12-18T21:50:44.534Z,103038.84
2022-12-18T21:54:07.479Z,103044.03
2022-12-18T21:57:29.477Z,103040.56
2022-12-18T22:00:52.017Z,103038.84
2022-12-18T22:04:14.085Z,103027.50
2022-12-18T22:07:35.397Z,103026.69
2022-12-18T22:10:58.627Z,103025.78
2022-12-18T22:14:21.519Z,103021.44
2022-12-18T22:17:43.187Z,103008.47
2022-12-18T22:21:06.469Z,103005.81
2022-12-18T22:24:29.798Z,103010.19
2022-12-18T22:28:06.636Z,103011.06
2022-12-18T22:31:28.214Z,103009.34
2022-12-18T22:34:49.799Z,103003.31
2022-12-18T22:38:11.861Z,102998.13
2022-12-18T22:41:33.403Z,102993.78
2022-12-18T22:44:56.475Z,102988.59
2022-12-18T22:48:18.156Z,102986.00
2022-12-18T22:51:40.923Z,102980.81
2022-12-18T22:55:02.208Z,102974.75
2022-12-18T22:58:24.486Z,102961.72
2022-12-18T23:01:48.099Z,102942.59
2022-12-18T23:05:10.805Z,102946.97
2022-12-18T23:08:32.067Z,102927.84
2022-12-18T23:11:53.195Z,102923.53
2022-12-18T23:15:14.576Z,102908.75
2022-12-18T23:18:39.781Z,102923.53
2022-12-18T23:22:02.892Z,102911.38
2022-12-18T23:25:25.910Z,102894.88
2022-12-18T23:28:47.918Z,102892.28
2022-12-18T23:32:09.763Z,102900.94
2022-12-18T23:35:32.692Z,102901.81
2022-12-18T23:38:55.845Z,102896.59
2022-12-18T23:42:17.553Z,102888.75
2022-12-18T23:45:39.837Z,102889.63
2022-12-18T23:49:03.430Z,102892.22
2022-12-18T23:52:28.886Z,102888.75
2022-12-18T23:55:50.309Z,102876.59
2022-12-18T23:59:14.104Z,102867.91
